Terminal Aerodrome Forecast
Issued by NWS Chicago, IL

Home | Current Version | Previous Version | Graphics & Text | Print | Product List | Glossary On
Versions: 1 2 3 4 5 6 7 8 9 10 11 12 13 14 15 16 17 18 19 20 21 22 23 24 25 26 27 28 29 30
000
FTUS43 KLOT 180121 AAA
TAFRFD
TAF AMD
KRFD 180121Z 1801/1824 28008KT 2SM BR OVC005
      TEMPO 1801/1803 1SM -SHRA BR OVC004
     FM180600 27007KT 3SM BR SCT004 OVC006
     FM181200 26007KT 4SM BR BKN008
     FM181500 24007KT 4SM BR BKN030
     FM181600 23010KT P6SM SCT035=

USA.gov is the U.S. government's official web portal to all federal, state and local government web resources and services.